Time;durP1;ratioP1;P1;durP2;ratioP2;P2;SDS_P1;SDS_P2;PMS_P1;PMS_P2;Temp;Humidity;BMP_temperature;BMP_pressure;BME280_temperature;BME280_humidity;BME280_pressure;Samples;Min_cycle;Max_cycle;Signal;HPM_P1;HPM_P2
2022/04/22 00:01:12;;;;;;;13.73;7.03;;;11.00;99.90;;;;;;4975476;28;20038;-73
2022/04/22 00:03:38;;;;;;;12.13;6.43;;;11.00;99.90;;;;;;4992187;28;20145;-73
2022/04/22 00:06:04;;;;;;;12.48;6.75;;;11.00;99.90;;;;;;4975450;28;20135;-73
2022/04/22 00:08:30;;;;;;;11.85;6.97;;;10.90;99.90;;;;;;4976257;28;20449;-73
2022/04/22 00:13:39;;;;;;;15.40;7.88;;;10.80;99.90;;;;;;4992108;28;20043;-73
2022/04/22 00:16:06;;;;;;;14.80;6.97;;;10.70;99.90;;;;;;5023756;28;20391;-73
2022/04/22 00:18:32;;;;;;;13.65;7.85;;;10.60;99.90;;;;;;4992414;28;20066;-74
2022/04/22 00:20:58;;;;;;;11.90;7.63;;;10.60;99.90;;;;;;5023759;28;20584;-74
2022/04/22 00:23:24;;;;;;;16.17;7.88;;;10.60;99.90;;;;;;4976131;28;20081;-73
2022/04/22 00:25:49;;;;;;;14.88;7.75;;;10.40;99.90;;;;;;4974940;28;20042;-73
2022/04/22 00:28:15;;;;;;;15.82;8.05;;;10.50;99.90;;;;;;4992084;28;20068;-73
2022/04/22 00:30:41;;;;;;;13.48;6.82;;;10.50;99.90;;;;;;4975068;28;20069;-73
2022/04/22 00:33:06;;;;;;;13.07;7.15;;;10.50;99.90;;;;;;4991934;28;20089;-73
2022/04/22 00:35:32;;;;;;;13.95;7.57;;;10.50;99.90;;;;;;4977306;28;20057;-73
2022/04/22 00:37:59;;;;;;;12.38;7.15;;;10.60;99.90;;;;;;4997401;28;20096;-73
2022/04/22 00:40:25;;;;;;;12.60;6.93;;;10.60;99.90;;;;;;5025918;28;20449;-73
2022/04/22 00:42:50;;;;;;;13.70;7.13;;;10.60;99.90;;;;;;4995727;28;20372;-73
2022/04/22 00:45:19;;;;;;;14.38;6.93;;;10.60;99.90;;;;;;5027217;28;20046;-73
2022/04/22 00:47:45;;;;;;;13.77;7.68;;;10.50;99.90;;;;;;4978937;28;20046;-73
2022/04/22 00:50:11;;;;;;;15.13;7.65;;;10.50;99.90;;;;;;4977745;28;20038;-73
2022/04/22 00:52:37;;;;;;;18.88;7.15;;;10.50;99.90;;;;;;5028030;28;20055;-73
2022/04/22 00:55:04;;;;;;;12.60;7.60;;;10.50;99.90;;;;;;5026914;28;20494;-73
2022/04/22 00:57:32;;;;;;;13.25;7.22;;;10.50;99.90;;;;;;5027928;28;20039;-73
2022/04/22 00:59:57;;;;;;;13.63;6.43;;;10.40;99.90;;;;;;4993864;28;20429;-73
2022/04/22 01:02:23;;;;;;;14.13;7.38;;;10.40;99.90;;;;;;4995151;28;20042;-73
2022/04/22 01:10:17;;;;;;;15.43;7.53;;;10.40;99.90;;;;;;4994467;28;20042;-73
2022/04/22 01:12:43;;;;;;;14.13;7.28;;;10.40;99.90;;;;;;4976934;28;20044;-73
2022/04/22 01:15:09;;;;;;;11.80;6.63;;;10.30;99.90;;;;;;5024470;28;20040;-73
2022/04/22 01:17:35;;;;;;;11.70;6.85;;;10.40;99.90;;;;;;5007736;28;20046;-73
2022/04/22 01:20:01;;;;;;;14.00;6.78;;;10.40;99.90;;;;;;4972228;28;20088;-73
2022/04/22 01:22:27;;;;;;;12.90;6.88;;;10.30;99.90;;;;;;4996965;28;20046;-73
2022/04/22 01:24:58;;;;;;;11.90;7.00;;;10.30;99.90;;;;;;4994407;28;20049;-73
2022/04/22 01:27:27;;;;;;;13.82;7.40;;;10.40;99.90;;;;;;4994260;28;20045;-73
2022/04/22 01:29:52;;;;;;;13.18;7.00;;;10.30;99.90;;;;;;4994578;28;20100;-73
2022/04/22 01:32:18;;;;;;;13.75;7.25;;;10.20;99.90;;;;;;4978235;28;20042;-73
2022/04/22 01:34:44;;;;;;;12.77;7.43;;;10.20;99.90;;;;;;4978112;28;20407;-73
2022/04/22 01:37:09;;;;;;;14.25;7.80;;;10.10;99.90;;;;;;4994405;28;20077;-72
2022/04/22 01:39:35;;;;;;;14.68;8.00;;;10.20;99.90;;;;;;4978080;28;20508;-73
2022/04/22 01:42:01;;;;;;;13.50;7.75;;;10.10;99.90;;;;;;4994298;28;20038;-73
2022/04/22 01:44:28;;;;;;;13.48;7.18;;;10.00;99.90;;;;;;4994212;28;20399;-73
2022/04/22 01:46:53;;;;;;;12.75;7.40;;;9.90;99.90;;;;;;4976922;28;20038;-73
2022/04/22 01:49:19;;;;;;;15.43;7.97;;;9.90;99.90;;;;;;4978018;28;20050;-73
2022/04/22 01:51:44;;;;;;;15.88;8.02;;;9.80;99.90;;;;;;4994065;28;20410;-74
2022/04/22 01:54:11;;;;;;;13.48;7.93;;;9.80;99.90;;;;;;4993917;28;20081;-73
2022/04/22 01:56:36;;;;;;;13.52;8.13;;;9.80;99.90;;;;;;4994141;28;20066;-73
2022/04/22 01:59:02;;;;;;;14.68;8.35;;;9.80;99.90;;;;;;4993960;28;20042;-73
2022/04/22 02:01:27;;;;;;;15.80;7.75;;;9.80;99.90;;;;;;4977788;28;20045;-73
2022/04/22 02:03:53;;;;;;;12.80;7.32;;;9.70;99.90;;;;;;4993838;28;20046;-73
2022/04/22 02:06:18;;;;;;;15.35;7.68;;;9.80;99.90;;;;;;4993746;28;20461;-73
2022/04/22 02:08:44;;;;;;;15.13;7.60;;;9.80;99.90;;;;;;4977890;28;20046;-73
2022/04/22 02:11:10;;;;;;;14.00;7.47;;;9.80;99.90;;;;;;4993659;28;20042;-73
2022/04/22 02:13:38;;;;;;;13.52;6.97;;;9.80;99.90;;;;;;4993647;28;20042;-73
2022/04/22 02:16:08;;;;;;;13.25;6.93;;;9.80;99.90;;;;;;4993754;28;20096;-73
2022/04/22 02:18:36;;;;;;;13.82;6.82;;;9.60;99.90;;;;;;4992436;28;20045;-74
2022/04/22 02:21:04;;;;;;;14.35;7.43;;;9.70;99.90;;;;;;4976969;28;20050;-74
2022/04/22 02:23:30;;;;;;;11.98;5.90;;;9.60;99.90;;;;;;4976879;28;20491;-74
2022/04/22 02:25:55;;;;;;;11.95;7.00;;;9.70;99.90;;;;;;4994121;28;20053;-74
2022/04/22 02:28:33;;;;;;;11.52;6.28;;;9.60;99.90;;;;;;4977220;28;20125;-74
2022/04/22 02:31:06;;;;;;;11.65;6.50;;;9.60;99.90;;;;;;4993492;28;20039;-73
2022/04/22 02:33:34;;;;;;;14.60;6.32;;;9.60;99.90;;;;;;4993332;28;20487;-73
2022/04/22 02:36:01;;;;;;;12.07;5.97;;;9.60;99.90;;;;;;4993174;28;20140;-74
2022/04/22 02:38:28;;;;;;;11.18;6.57;;;9.60;99.90;;;;;;4977338;28;20360;-74
2022/04/22 02:46:23;;;;;;;13.00;6.70;;;9.50;99.90;;;;;;5009716;28;20394;-73
2022/04/22 02:48:49;;;;;;;12.93;6.35;;;9.40;99.90;;;;;;4976832;28;20050;-73
2022/04/22 02:51:14;;;;;;;11.35;5.47;;;9.40;99.90;;;;;;4993033;28;20410;-73
2022/04/22 02:53:40;;;;;;;10.88;5.75;;;9.30;99.90;;;;;;5009358;28;20042;-73
2022/04/22 02:56:07;;;;;;;10.88;5.65;;;9.30;99.90;;;;;;5025687;28;20553;-73
2022/04/22 02:58:33;;;;;;;10.93;5.60;;;9.20;99.90;;;;;;4976615;28;20043;-73
2022/04/22 03:00:58;;;;;;;12.15;5.90;;;9.30;99.90;;;;;;4994162;28;20045;-73
2022/04/22 03:03:24;;;;;;;11.20;5.80;;;9.30;99.90;;;;;;5025994;28;20038;-73
2022/04/22 03:05:51;;;;;;;11.32;5.88;;;9.30;99.90;;;;;;5025764;28;20042;-73
2022/04/22 03:08:16;;;;;;;12.00;6.05;;;9.20;99.90;;;;;;4992811;28;20133;-73
2022/04/22 03:10:42;;;;;;;11.85;6.05;;;9.20;99.90;;;;;;4992794;28;20477;-74
2022/04/22 03:13:08;;;;;;;11.93;5.38;;;9.30;99.90;;;;;;4992698;28;20038;-73
2022/04/22 03:15:35;;;;;;;10.27;5.43;;;9.10;99.90;;;;;;4976406;28;20037;-73
2022/04/22 03:18:01;;;;;;;11.13;5.30;;;9.10;99.90;;;;;;4992530;28;20046;-73
2022/04/22 03:20:26;;;;;;;9.35;4.90;;;9.10;99.90;;;;;;4992601;28;20056;-73
2022/04/22 03:22:52;;;;;;;11.43;5.22;;;9.10;99.90;;;;;;4976532;28;20487;-73
2022/04/22 03:25:20;;;;;;;10.70;5.05;;;9.20;99.90;;;;;;4992575;28;20042;-73
2022/04/22 03:27:46;;;;;;;10.00;5.40;;;9.10;99.90;;;;;;4976390;28;20038;-73
2022/04/22 03:30:12;;;;;;;14.68;5.47;;;9.00;99.90;;;;;;4992550;28;20127;-73
2022/04/22 03:32:38;;;;;;;9.52;4.85;;;8.90;99.90;;;;;;4992561;28;20042;-73
2022/04/22 03:35:05;;;;;;;9.43;4.80;;;8.90;99.90;;;;;;4992456;28;20045;-73
2022/04/22 03:37:31;;;;;;;11.88;5.03;;;8.90;99.90;;;;;;4992364;28;20495;-73
2022/04/22 03:39:57;;;;;;;11.57;5.28;;;8.90;99.90;;;;;;4976297;28;20047;-73
2022/04/22 03:42:23;;;;;;;9.88;4.63;;;8.90;99.90;;;;;;4976544;28;20038;-73
2022/04/22 03:44:48;;;;;;;9.80;5.75;;;8.90;99.90;;;;;;5025156;28;20050;-73
2022/04/22 03:47:14;;;;;;;10.23;5.05;;;8.90;99.90;;;;;;4976319;28;20141;-73
2022/04/22 03:49:40;;;;;;;8.60;4.93;;;8.80;99.90;;;;;;5009330;28;20046;-73
2022/04/22 03:52:06;;;;;;;9.13;4.90;;;8.70;99.90;;;;;;4992368;28;20042;-73
2022/04/22 03:54:31;;;;;;;16.20;5.32;;;8.80;99.90;;;;;;4992505;28;20388;-73
2022/04/22 03:59:41;;;;;;;10.43;5.00;;;8.90;99.90;;;;;;5009009;28;20132;-73
2022/04/22 04:02:07;;;;;;;10.77;4.80;;;8.80;99.90;;;;;;5008649;28;20586;-73
2022/04/22 04:04:33;;;;;;;11.68;5.03;;;8.80;99.90;;;;;;5008919;28;20371;-73
2022/04/22 04:06:59;;;;;;;9.73;4.90;;;8.60;99.90;;;;;;4976007;28;20042;-73
2022/04/22 04:17:38;;;;;;;9.80;5.20;;;8.80;99.90;;;;;;5028974;28;20046;-73
2022/04/22 04:25:33;;;;;;;9.63;4.85;;;8.60;99.90;;;;;;5028949;28;20503;-73
2022/04/22 04:27:59;;;;;;;8.35;4.45;;;8.60;99.90;;;;;;4995587;28;20143;-73
2022/04/22 04:30:25;;;;;;;12.27;5.05;;;8.70;99.90;;;;;;4995655;28;20462;-73
2022/04/22 04:32:50;;;;;;;10.65;4.70;;;8.70;99.90;;;;;;4995546;28;20077;-73
2022/04/22 04:35:16;;;;;;;10.90;4.53;;;8.70;99.90;;;;;;4979219;28;20042;-73
2022/04/22 04:37:42;;;;;;;10.18;4.70;;;8.60;99.90;;;;;;4995411;28;20169;-73
2022/04/22 04:40:11;;;;;;;8.98;4.70;;;8.50;99.90;;;;;;4995673;28;20089;-73
2022/04/22 04:42:37;;;;;;;8.55;4.43;;;8.50;99.90;;;;;;4996818;28;20470;-73
2022/04/22 04:45:04;;;;;;;9.13;4.70;;;8.40;99.90;;;;;;4995427;28;20077;-73
2022/04/22 04:47:30;;;;;;;9.57;4.50;;;8.50;99.90;;;;;;4995484;28;20049;-73
2022/04/22 04:49:56;;;;;;;9.55;4.20;;;8.40;99.90;;;;;;4979383;28;20108;-72
2022/04/22 04:52:21;;;;;;;9.45;5.47;;;8.40;99.90;;;;;;4978952;28;20506;-73
2022/04/22 04:54:50;;;;;;;8.98;5.03;;;8.30;99.90;;;;;;4995136;28;20046;-73
2022/04/22 04:57:15;;;;;;;12.00;5.05;;;8.40;99.90;;;;;;5011323;28;20053;-73
2022/04/22 04:59:42;;;;;;;8.15;4.38;;;8.30;99.90;;;;;;4995115;28;20034;-73
2022/04/22 05:02:07;;;;;;;9.50;4.70;;;8.40;99.90;;;;;;4994957;28;20069;-73
2022/04/22 05:04:33;;;;;;;10.13;4.60;;;8.50;99.90;;;;;;4995264;28;20038;-73
2022/04/22 05:06:58;;;;;;;10.15;4.75;;;8.40;99.90;;;;;;5011272;28;20042;-73
2022/04/22 05:09:24;;;;;;;11.00;4.93;;;8.50;99.90;;;;;;4978716;28;20054;-73
2022/04/22 05:11:49;;;;;;;9.38;4.72;;;8.50;99.90;;;;;;5011524;28;20038;-73
2022/04/22 05:14:15;;;;;;;11.45;4.60;;;8.50;99.90;;;;;;4994849;28;20165;-73
2022/04/22 05:16:40;;;;;;;12.15;4.80;;;8.50;99.90;;;;;;5011145;28;20423;-73
2022/04/22 05:19:06;;;;;;;9.27;4.78;;;8.50;99.90;;;;;;4994701;28;20038;-73
2022/04/22 05:21:32;;;;;;;10.32;5.15;;;8.60;99.90;;;;;;4978296;28;20085;-73
2022/04/22 05:23:57;;;;;;;11.45;5.30;;;8.60;99.90;;;;;;4994701;28;20049;-73
2022/04/22 05:26:24;;;;;;;9.70;4.63;;;8.50;99.90;;;;;;5011102;28;20053;-73
2022/04/22 05:28:49;;;;;;;10.48;4.63;;;8.40;99.90;;;;;;4978021;28;20069;-73
2022/04/22 05:33:59;;;;;;;12.63;5.35;;;8.50;99.90;;;;;;5005413;28;20045;-73
2022/04/22 05:36:25;;;;;;;9.38;4.95;;;8.50;99.90;;;;;;4979067;28;20046;-73
2022/04/22 05:38:52;;;;;;;10.52;5.10;;;8.50;99.90;;;;;;4994193;28;20058;-73
2022/04/22 05:41:18;;;;;;;11.00;5.05;;;8.60;99.90;;;;;;4994610;28;20038;-73
2022/04/22 05:43:44;;;;;;;9.30;4.85;;;8.60;99.90;;;;;;4977358;28;20042;-73
2022/04/22 05:46:09;;;;;;;9.52;5.53;;;8.70;99.90;;;;;;4994526;28;20073;-73
2022/04/22 05:48:35;;;;;;;10.07;5.05;;;8.70;99.90;;;;;;5027163;28;20038;-73
2022/04/22 05:51:01;;;;;;;8.55;3.95;;;8.80;99.90;;;;;;5027119;28;20045;-73
2022/04/22 05:53:28;;;;;;;10.63;5.60;;;8.80;99.90;;;;;;4994235;28;20039;-73
2022/04/22 05:55:53;;;;;;;11.35;5.28;;;8.80;99.90;;;;;;4993956;28;20043;-73
2022/04/22 05:58:19;;;;;;;10.65;4.88;;;8.70;99.90;;;;;;4976042;28;20049;-73
2022/04/22 06:00:45;;;;;;;10.82;5.00;;;8.90;99.90;;;;;;4976202;28;20039;-73
2022/04/22 06:03:10;;;;;;;11.02;4.70;;;9.00;99.90;;;;;;4998176;28;20030;-73
2022/04/22 06:05:36;;;;;;;10.05;4.75;;;9.00;99.90;;;;;;5011829;28;20046;-73
2022/04/22 06:10:51;;;;;;;9.85;4.30;;;9.10;99.90;;;;;;5001195;28;20398;-73
2022/04/22 06:13:16;;;;;;;9.93;4.35;;;9.20;99.90;;;;;;4981508;28;20030;-73
2022/04/22 06:15:42;;;;;;;8.75;3.88;;;9.20;99.90;;;;;;4996922;28;20065;-72
2022/04/22 06:18:08;;;;;;;10.23;4.65;;;9.30;99.90;;;;;;4980106;28;20058;-72
2022/04/22 06:20:33;;;;;;;8.73;3.88;;;9.40;99.90;;;;;;5026166;28;20125;-72
2022/04/22 06:23:00;;;;;;;8.55;4.28;;;9.40;99.90;;;;;;5026043;28;20058;-72
2022/04/22 06:25:27;;;;;;;9.77;3.95;;;9.30;99.90;;;;;;5010036;28;20434;-72
2022/04/22 06:27:53;;;;;;;7.95;3.90;;;9.20;99.90;;;;;;4993856;28;20157;-73
2022/04/22 06:30:21;;;;;;;9.18;3.78;;;9.40;99.90;;;;;;4993383;28;20487;-74
2022/04/22 06:32:50;;;;;;;8.40;3.42;;;9.50;99.90;;;;;;4992979;28;20038;-73
2022/04/22 06:35:20;;;;;;;9.63;4.40;;;9.60;99.90;;;;;;4977140;28;20137;-73
2022/04/22 06:37:50;;;;;;;7.95;3.78;;;9.60;99.90;;;;;;4977301;28;20038;-73
2022/04/22 06:45:48;;;;;;;5.90;3.25;;;9.80;99.90;;;;;;5026047;28;20042;-73
2022/04/22 06:48:30;;;;;;;8.45;3.65;;;10.00;99.90;;;;;;4993016;28;20534;-73
2022/04/22 06:50:56;;;;;;;7.05;3.13;;;10.00;99.90;;;;;;4977212;28;20042;-73
2022/04/22 06:53:23;;;;;;;7.05;2.78;;;10.10;99.90;;;;;;4993020;28;20046;-72
2022/04/22 06:55:50;;;;;;;8.13;3.60;;;10.30;99.90;;;;;;4993065;28;20074;-73
2022/04/22 06:58:18;;;;;;;7.60;3.35;;;10.40;99.90;;;;;;5025851;28;20074;-73
2022/04/22 07:00:45;;;;;;;6.90;3.20;;;10.20;99.90;;;;;;4976910;28;20049;-72
2022/04/22 07:03:13;;;;;;;7.05;3.40;;;10.20;99.90;;;;;;4976907;28;20376;-73
2022/04/22 07:05:41;;;;;;;9.90;3.67;;;10.30;99.90;;;;;;4976691;28;20042;-72
2022/04/22 07:08:11;;;;;;;9.13;3.33;;;10.30;99.90;;;;;;4992809;28;20045;-72
2022/04/22 07:10:37;;;;;;;7.10;3.20;;;10.40;99.90;;;;;;4992936;28;20533;-72
2022/04/22 07:13:04;;;;;;;8.80;3.20;;;10.60;99.90;;;;;;4992767;28;20042;-72
2022/04/22 07:15:30;;;;;;;9.27;3.45;;;10.50;99.90;;;;;;4976430;28;20487;-72
2022/04/22 07:17:56;;;;;;;9.48;3.20;;;10.50;99.90;;;;;;4992900;28;20057;-72
2022/04/22 07:20:22;;;;;;;7.85;3.15;;;10.70;99.90;;;;;;4992476;28;20054;-72
2022/04/22 07:22:48;;;;;;;9.95;3.08;;;10.80;99.90;;;;;;4992604;28;20538;-72
2022/04/22 07:25:15;;;;;;;6.95;3.17;;;10.80;99.90;;;;;;4992578;28;20089;-72
2022/04/22 07:27:43;;;;;;;8.23;3.30;;;10.90;99.90;;;;;;4976431;28;20049;-72
2022/04/22 07:30:13;;;;;;;7.57;3.40;;;10.90;99.90;;;;;;4992668;28;20113;-72
2022/04/22 07:32:41;;;;;;;8.38;3.50;;;11.00;99.90;;;;;;4992882;28;20052;-72
2022/04/22 07:35:11;;;;;;;6.90;3.10;;;11.10;99.90;;;;;;4976472;28;20084;-72
2022/04/22 07:37:40;;;;;;;5.57;2.40;;;11.20;99.90;;;;;;4992819;28;20441;-73
2022/04/22 07:40:07;;;;;;;9.70;2.95;;;11.20;99.90;;;;;;4992684;28;20372;-72
2022/04/22 07:42:34;;;;;;;6.18;2.95;;;11.00;99.90;;;;;;4992370;28;20483;-73
2022/04/22 07:47:47;;;;;;;7.68;3.20;;;11.30;99.90;;;;;;5029304;28;20525;-73
2022/04/22 07:50:17;;;;;;;6.47;2.63;;;11.50;99.90;;;;;;4996622;28;20132;-73
2022/04/22 07:52:45;;;;;;;6.40;2.70;;;11.50;99.90;;;;;;4996338;28;20046;-73
2022/04/22 07:55:13;;;;;;;8.43;2.95;;;11.70;99.90;;;;;;5029125;28;20364;-73
2022/04/22 07:57:42;;;;;;;6.13;2.65;;;11.80;99.90;;;;;;4980050;28;20039;-73
2022/04/22 08:00:11;;;;;;;5.82;2.70;;;11.80;99.90;;;;;;4979883;28;20035;-73
2022/04/22 08:02:40;;;;;;;7.47;2.85;;;11.80;99.90;;;;;;4980150;28;20395;-73
2022/04/22 08:05:08;;;;;;;6.85;3.00;;;11.90;99.90;;;;;;4979906;28;20137;-73
2022/04/22 08:07:34;;;;;;;7.82;3.42;;;12.10;99.90;;;;;;4979779;28;20046;-73
2022/04/22 08:09:59;;;;;;;5.70;2.90;;;12.10;99.90;;;;;;4995947;28;20052;-73
2022/04/22 08:12:25;;;;;;;9.40;3.10;;;12.20;99.90;;;;;;4996246;28;20130;-73
2022/04/22 08:14:50;;;;;;;8.57;2.90;;;12.20;99.90;;;;;;4995815;28;20049;-73
2022/04/22 08:17:16;;;;;;;6.63;3.20;;;12.30;99.90;;;;;;4996011;28;20125;-73
2022/04/22 08:19:44;;;;;;;6.95;3.00;;;12.30;99.90;;;;;;4995828;28;20089;-72
2022/04/22 08:22:10;;;;;;;6.95;3.05;;;12.40;99.90;;;;;;4995919;28;20133;-72
2022/04/22 08:24:36;;;;;;;6.93;2.80;;;12.50;99.90;;;;;;4995746;28;20077;-72
2022/04/22 08:27:01;;;;;;;8.50;3.38;;;12.70;99.90;;;;;;4995694;28;20050;-72
2022/04/22 08:29:27;;;;;;;9.05;2.75;;;12.80;99.90;;;;;;5028605;28;20411;-72
2022/04/22 08:31:53;;;;;;;5.80;3.20;;;12.90;99.90;;;;;;4995638;28;20491;-72
2022/04/22 08:34:19;;;;;;;7.43;3.30;;;12.80;98.60;;;;;;5028522;28;20163;-72
2022/04/22 08:36:46;;;;;;;6.88;3.00;;;12.90;98.80;;;;;;4995480;28;20051;-72
2022/04/22 08:39:12;;;;;;;7.55;3.58;;;13.00;99.60;;;;;;4995232;28;20078;-72
2022/04/22 08:41:40;;;;;;;5.65;2.58;;;13.30;99.60;;;;;;5027684;28;20030;-72
2022/04/22 08:44:07;;;;;;;6.90;2.25;;;13.50;98.80;;;;;;5028108;28;20521;-72
2022/04/22 08:52:02;;;;;;;6.40;3.08;;;13.80;96.90;;;;;;5006623;28;20281;-72
2022/04/22 08:54:28;;;;;;;8.25;2.88;;;13.90;97.60;;;;;;4998434;28;20074;-72
2022/04/22 08:56:55;;;;;;;5.63;2.45;;;14.10;97.50;;;;;;5002857;28;20151;-73
2022/04/22 08:59:20;;;;;;;9.98;2.92;;;14.20;96.70;;;;;;4995254;28;20050;-73
2022/04/22 09:01:46;;;;;;;7.50;2.70;;;14.30;95.10;;;;;;4995662;28;20065;-73
2022/04/22 09:04:12;;;;;;;6.68;2.80;;;14.30;94.40;;;;;;5011336;28;20091;-73
2022/04/22 09:06:37;;;;;;;7.10;2.78;;;14.40;93.90;;;;;;4995967;28;20053;-73
2022/04/22 09:09:06;;;;;;;8.27;2.75;;;14.40;94.90;;;;;;4995138;28;20041;-73
2022/04/22 09:11:37;;;;;;;5.47;2.20;;;14.60;95.10;;;;;;5027603;28;20046;-72
2022/04/22 09:14:03;;;;;;;7.28;2.50;;;14.70;94.50;;;;;;5027430;28;20070;-72
2022/04/22 09:16:30;;;;;;;7.70;2.80;;;14.80;91.90;;;;;;4978942;28;20387;-73
2022/04/22 09:19:03;;;;;;;6.25;2.50;;;14.70;92.90;;;;;;5013079;28;20030;-73
2022/04/22 09:21:29;;;;;;;7.15;2.40;;;14.80;90.90;;;;;;5014061;28;20510;-73
2022/04/22 09:23:56;;;;;;;7.35;2.45;;;14.90;94.90;;;;;;4990162;28;20050;-73
2022/04/22 09:26:26;;;;;;;6.80;2.90;;;15.10;94.70;;;;;;5001334;28;20038;-73
2022/04/22 09:29:03;;;;;;;7.20;2.90;;;15.20;92.90;;;;;;4985355;28;20026;-73
2022/04/22 09:31:29;;;;;;;6.68;2.80;;;15.30;93.30;;;;;;5014047;28;20049;-73
2022/04/22 09:33:56;;;;;;;7.47;2.63;;;15.40;93.60;;;;;;5001913;28;20121;-73
2022/04/22 09:44:58;;;;;;;5.30;2.00;;;15.50;89.60;;;;;;5030427;28;20046;-73
2022/04/22 09:47:26;;;;;;;7.40;2.38;;;15.70;87.50;;;;;;5006504;28;20100;-73
2022/04/22 09:49:52;;;;;;;9.88;3.00;;;15.70;90.10;;;;;;4977939;28;20109;-74
2022/04/22 09:52:31;;;;;;;8.48;3.00;;;15.70;90.70;;;;;;5010069;28;20182;-73
2022/04/22 09:55:02;;;;;;;6.47;3.00;;;15.80;90.90;;;;;;4994033;28;20038;-74
2022/04/22 09:57:28;;;;;;;6.68;3.10;;;15.90;91.90;;;;;;5010262;28;20046;-73
2022/04/22 09:59:55;;;;;;;4.70;2.35;;;16.00;90.30;;;;;;4995460;28;20065;-73
2022/04/22 10:02:25;;;;;;;7.22;3.10;;;16.10;91.50;;;;;;5013512;28;20045;-74
2022/04/22 10:04:55;;;;;;;7.10;3.38;;;16.10;87.10;;;;;;5003588;28;20042;-74
2022/04/22 10:07:25;;;;;;;6.75;3.45;;;16.00;81.20;;;;;;5009500;28;20125;-74
2022/04/22 10:09:53;;;;;;;6.95;2.92;;;15.90;88.90;;;;;;5004346;28;20042;-73
2022/04/22 10:12:21;;;;;;;6.15;3.25;;;15.90;89.40;;;;;;5026415;28;20505;-73
2022/04/22 10:14:47;;;;;;;8.50;3.63;;;16.10;91.30;;;;;;4993822;28;20105;-73
2022/04/22 10:17:13;;;;;;;7.00;3.20;;;16.20;86.60;;;;;;4993691;28;20042;-73
2022/04/22 10:19:39;;;;;;;7.97;3.30;;;16.20;85.70;;;;;;4993475;28;20050;-73
2022/04/22 10:22:07;;;;;;;6.55;3.67;;;16.30;85.10;;;;;;4993515;28;20478;-74
2022/04/22 10:24:32;;;;;;;7.68;3.60;;;16.50;90.40;;;;;;4993921;28;20056;-74
2022/04/22 10:27:02;;;;;;;8.05;3.70;;;16.60;88.10;;;;;;5025878;28;20034;-74
2022/04/22 10:29:30;;;;;;;8.38;3.30;;;16.70;90.00;;;;;;4977309;28;20042;-74
2022/04/22 10:31:56;;;;;;;6.90;3.35;;;16.70;88.60;;;;;;5008452;28;20038;-74
2022/04/22 10:34:43;;;;;;;5.25;2.90;;;16.70;80.70;;;;;;5001124;28;20045;-73
2022/04/22 10:37:25;;;;;;;6.80;2.92;;;16.70;80.40;;;;;;4983872;28;20514;-74
2022/04/22 10:39:52;;;;;;;5.78;3.65;;;16.70;78.10;;;;;;5006007;28;20047;-74
2022/04/22 10:42:18;;;;;;;7.38;3.58;;;16.80;78.10;;;;;;5021251;28;20034;-74
2022/04/22 10:47:42;;;;;;;7.55;3.47;;;16.70;73.80;;;;;;4992416;28;20046;-74
2022/04/22 10:50:28;;;;;;;7.18;3.05;;;16.60;73.90;;;;;;4972716;28;20076;-74
2022/04/22 10:53:03;;;;;;;7.78;3.58;;;16.90;78.50;;;;;;4958156;28;20125;-74
2022/04/22 10:55:31;;;;;;;8.20;3.50;;;16.90;79.40;;;;;;4988151;28;20042;-75
2022/04/22 10:58:15;;;;;;;7.68;3.03;;;17.00;81.60;;;;;;5008474;28;20042;-75
2022/04/22 11:00:49;;;;;;;8.30;3.53;;;17.20;80.00;;;;;;4984764;28;20431;-75
2022/04/22 11:03:20;;;;;;;7.72;3.47;;;17.10;76.30;;;;;;5007912;28;20043;-75
2022/04/22 11:05:48;;;;;;;9.30;4.00;;;16.90;73.40;;;;;;4991402;28;20156;-74
2022/04/22 11:08:25;;;;;;;6.78;3.35;;;16.90;74.00;;;;;;4991687;28;20038;-75
2022/04/22 11:10:53;;;;;;;6.68;3.17;;;16.60;67.00;;;;;;4975928;28;20050;-74
2022/04/22 11:13:33;;;;;;;8.05;3.40;;;16.70;74.30;;;;;;5007989;28;20049;-74
2022/04/22 11:16:11;;;;;;;8.43;3.53;;;17.00;77.40;;;;;;4975915;28;20121;-74
2022/04/22 11:18:42;;;;;;;6.93;3.50;;;17.20;76.00;;;;;;4991854;28;20064;-74
2022/04/22 11:21:19;;;;;;;6.93;3.55;;;16.80;65.10;;;;;;5024782;28;20121;-74
2022/04/22 11:23:45;;;;;;;8.30;3.53;;;17.00;74.50;;;;;;5024475;28;20100;-75
2022/04/22 11:26:18;;;;;;;7.78;3.85;;;17.00;73.80;;;;;;5024905;28;20046;-75
2022/04/22 11:28:45;;;;;;;7.40;3.50;;;17.20;76.40;;;;;;4991655;28;20490;-75
2022/04/22 11:31:13;;;;;;;7.28;3.33;;;17.30;75.20;;;;;;5007950;28;20042;-75
2022/04/22 11:33:50;;;;;;;7.20;3.80;;;17.20;74.60;;;;;;4976408;28;20038;-75
2022/04/22 11:36:16;;;;;;;6.65;3.92;;;17.30;71.70;;;;;;4991944;28;20078;-75
2022/04/22 11:38:52;;;;;;;7.65;3.83;;;17.10;67.20;;;;;;5024274;28;20132;-75
2022/04/22 11:41:18;;;;;;;7.45;3.50;;;17.00;68.40;;;;;;4975917;28;20073;-74
2022/04/22 11:43:45;;;;;;;9.38;3.90;;;17.30;70.50;;;;;;5022089;28;20066;-75
2022/04/22 11:46:12;;;;;;;7.65;3.53;;;17.30;70.30;;;;;;5023968;28;20038;-74
2022/04/22 11:48:49;;;;;;;7.72;3.65;;;17.30;71.40;;;;;;5024601;28;20046;-75
2022/04/22 11:51:16;;;;;;;7.30;3.67;;;17.30;67.70;;;;;;4976944;28;20383;-75
2022/04/22 11:53:52;;;;;;;6.43;3.42;;;17.30;71.00;;;;;;4991690;28;20058;-75
2022/04/22 11:56:20;;;;;;;8.68;4.07;;;17.40;71.70;;;;;;5024590;28;20398;-75
2022/04/22 11:58:50;;;;;;;7.22;3.95;;;17.50;73.00;;;;;;5023768;28;20525;-75
2022/04/22 12:06:44;;;;;;;8.30;4.50;;;17.50;71.40;;;;;;5028540;28;20413;-76
2022/04/22 12:09:10;;;;;;;6.75;3.92;;;17.70;73.90;;;;;;5011077;28;20041;-75
2022/04/22 12:11:43;;;;;;;7.60;4.10;;;17.80;72.90;;;;;;5011255;28;20041;-74
2022/04/22 12:14:23;;;;;;;8.00;4.18;;;17.80;70.90;;;;;;5001825;28;20495;-75
2022/04/22 12:16:55;;;;;;;9.70;4.05;;;17.90;74.10;;;;;;5010110;28;20042;-75
2022/04/22 12:19:22;;;;;;;7.80;3.33;;;17.90;71.40;;;;;;4968033;28;20050;-74
2022/04/22 12:21:48;;;;;;;8.05;4.20;;;17.80;70.60;;;;;;4978984;28;20048;-75
2022/04/22 12:24:16;;;;;;;7.63;3.95;;;17.80;69.20;;;;;;4992543;28;20494;-74
2022/04/22 12:26:44;;;;;;;10.60;4.53;;;17.80;68.90;;;;;;5006666;28;20057;-74
2022/04/22 12:29:10;;;;;;;9.52;4.30;;;17.70;67.50;;;;;;4990585;28;20042;-75
2022/04/22 12:31:42;;;;;;;8.57;3.90;;;17.80;69.10;;;;;;5003872;28;20046;-74
2022/04/22 12:34:09;;;;;;;;;;;17.80;65.80;;;;;;4979134;28;20042;-74
2022/04/22 12:36:37;;;;;;;8.93;4.40;;;17.70;68.70;;;;;;4991176;28;19922;-74
2022/04/22 12:39:05;;;;;;;9.27;4.38;;;17.80;67.50;;;;;;5009677;28;20093;-74
2022/04/22 12:41:41;;;;;;;7.60;4.53;;;17.90;70.60;;;;;;5027496;28;20042;-74
2022/04/22 12:44:14;;;;;;;8.57;4.70;;;18.00;71.20;;;;;;5026961;28;20042;-74
2022/04/22 12:52:21;;;;;;;9.75;5.20;;;18.00;69.20;;;;;;4986331;28;20051;-74
2022/04/22 12:54:50;;;;;;;9.10;4.38;;;18.10;71.10;;;;;;4991389;28;20035;-75
2022/04/22 12:57:25;;;;;;;8.32;5.20;;;18.10;70.70;;;;;;5027739;28;20038;-75
2022/04/22 12:59:54;;;;;;;9.07;5.15;;;18.00;71.20;;;;;;5026811;28;20041;-75
2022/04/22 13:02:28;;;;;;;11.40;5.50;;;18.10;73.30;;;;;;4974747;28;20039;-75
2022/04/22 13:05:04;;;;;;;9.95;4.88;;;17.90;68.90;;;;;;4962026;28;20042;-75
2022/04/22 13:07:45;;;;;;;10.95;6.07;;;17.90;72.00;;;;;;4992941;28;20062;-74
2022/04/22 13:10:15;;;;;;;8.00;5.20;;;17.70;69.40;;;;;;5011758;28;20133;-74
2022/04/22 13:12:43;;;;;;;11.32;6.38;;;17.80;71.50;;;;;;4991640;28;20398;-74
2022/04/22 13:15:13;;;;;;;9.60;6.13;;;17.60;70.50;;;;;;5007708;28;20058;-74
2022/04/22 13:17:41;;;;;;;10.18;6.00;;;17.50;71.60;;;;;;5007110;28;20038;-74
2022/04/22 13:20:08;;;;;;;12.02;5.43;;;17.60;71.30;;;;;;5026350;28;20046;-74
2022/04/22 13:22:34;;;;;;;11.13;5.90;;;17.70;72.40;;;;;;5005215;28;20039;-74
2022/04/22 13:25:00;;;;;;;8.90;5.90;;;17.70;70.50;;;;;;4974861;28;20046;-78
2022/04/22 13:27:25;;;;;;;10.90;5.68;;;17.70;71.90;;;;;;5013907;28;20406;-75
2022/04/22 13:29:51;;;;;;;8.43;5.63;;;17.70;69.60;;;;;;4994034;28;20414;-75
2022/04/22 13:32:16;;;;;;;10.93;5.60;;;17.80;73.10;;;;;;4994068;28;20512;-75
2022/04/22 13:34:42;;;;;;;9.32;6.00;;;17.80;72.30;;;;;;4974026;28;20538;-74
2022/04/22 13:37:07;;;;;;;10.25;5.65;;;17.80;72.90;;;;;;4990609;28;20848;-74
2022/04/22 13:39:35;;;;;;;10.98;5.38;;;17.80;71.80;;;;;;4973435;28;20554;-73
2022/04/22 13:42:00;;;;;;;8.70;5.30;;;17.70;73.50;;;;;;4983969;28;20065;-74
2022/04/22 13:52:39;;;;;;;10.38;5.70;;;18.10;72.10;;;;;;4993153;28;20402;-74
2022/04/22 13:55:05;;;;;;;10.88;5.03;;;18.10;74.10;;;;;;4993186;28;20038;-74
2022/04/22 13:57:31;;;;;;;10.65;5.90;;;18.20;75.00;;;;;;4993353;28;20049;-74
2022/04/22 13:59:56;;;;;;;12.50;5.97;;;18.10;72.90;;;;;;4988161;28;20039;-74
2022/04/22 14:02:22;;;;;;;10.15;6.25;;;17.90;72.90;;;;;;4974400;28;20121;-74
2022/04/22 14:04:49;;;;;;;10.80;5.60;;;17.70;74.20;;;;;;4973987;28;20070;-75
2022/04/22 14:07:14;;;;;;;10.40;6.32;;;17.70;75.20;;;;;;4991871;28;20077;-75